Time;durP1;ratioP1;P1;durP2;ratioP2;P2;SDS_P1;SDS_P2;PMS_P1;PMS_P2;Temp;Humidity;BMP_temperature;BMP_pressure;BME280_temperature;BME280_humidity;BME280_pressure;Samples;Min_cycle;Max_cycle;Signal;HPM_P1;HPM_P2
2023/10/09 00:00:50;;;;;;;14.98;4.55;;;;;;;18.42;99.73;101468.56;4798075;30;20053;-67
2023/10/09 00:03:19;;;;;;;10.48;4.40;;;;;;;18.34;100.00;101462.59;4801226;30;20055;-67
2023/10/09 00:05:47;;;;;;;9.77;4.85;;;;;;;18.34;98.04;101461.81;4799335;30;20071;-67
2023/10/09 00:08:22;;;;;;;9.15;4.18;;;;;;;18.23;98.67;101452.91;4800218;30;20055;-67
2023/10/09 00:10:54;;;;;;;10.40;5.07;;;;;;;18.18;98.72;101450.25;4800305;30;20491;-68
2023/10/09 00:13:32;;;;;;;11.93;5.13;;;;;;;18.10;99.90;101449.84;4805315;29;20051;-67
2023/10/09 00:16:14;;;;;;;10.82;4.50;;;;;;;18.09;99.60;101445.44;4800557;30;20062;-67
2023/10/09 00:18:46;;;;;;;9.60;4.60;;;;;;;18.09;99.58;101450.16;4800657;30;20514;-67
2023/10/09 00:21:22;;;;;;;10.05;5.43;;;;;;;18.08;99.85;101448.53;4800935;30;20055;-67
2023/10/09 00:23:55;;;;;;;8.95;4.88;;;;;;;17.96;100.00;101441.53;4800889;30;20062;-67
2023/10/09 00:26:24;;;;;;;13.45;5.00;;;;;;;17.88;100.00;101436.72;4799859;30;20059;-67
2023/10/09 00:28:53;;;;;;;11.00;4.85;;;;;;;17.96;100.00;101438.78;4799681;30;20051;-67
2023/10/09 00:31:33;;;;;;;12.80;5.35;;;;;;;18.08;99.81;101435.47;4784739;30;20051;-67
2023/10/09 00:34:03;;;;;;;13.23;5.30;;;;;;;18.29;97.99;101440.59;4799746;30;20039;-68
2023/10/09 00:36:32;;;;;;;14.77;6.45;;;;;;;18.41;98.31;101434.47;4799774;30;20455;-67
2023/10/09 00:39:11;;;;;;;13.30;4.85;;;;;;;18.25;99.33;101432.09;4799894;30;20130;-67
2023/10/09 00:41:41;;;;;;;13.80;5.15;;;;;;;18.17;100.00;101432.00;4785227;30;20059;-67
2023/10/09 00:44:10;;;;;;;11.05;5.40;;;;;;;18.04;100.00;101422.53;4799759;30;20058;-67
2023/10/09 00:46:42;;;;;;;12.60;5.00;;;;;;;17.92;100.00;101426.66;4798925;30;20059;-67
2023/10/09 00:49:10;;;;;;;9.60;5.25;;;;;;;17.88;100.00;101424.81;4799686;30;20074;-67
2023/10/09 00:51:56;;;;;;;11.35;4.65;;;;;;;17.73;100.00;101424.00;4800560;30;20043;-67
2023/10/09 00:54:28;;;;;;;11.95;4.75;;;;;;;17.71;100.00;101412.44;4799248;30;20059;-67
2023/10/09 00:57:06;;;;;;;14.52;5.43;;;;;;;17.69;100.00;101412.72;4784657;30;20070;-67
2023/10/09 00:59:38;;;;;;;10.95;5.38;;;;;;;17.76;100.00;101419.81;4799729;30;20054;-67
2023/10/09 01:02:06;;;;;;;12.13;5.20;;;;;;;17.81;100.00;101408.63;4798844;30;20423;-67
2023/10/09 01:04:43;;;;;;;8.95;4.80;;;;;;;17.95;100.00;101406.63;4782644;30;20052;-67
2023/10/09 01:07:25;;;;;;;8.80;4.95;;;;;;;17.95;100.00;101403.88;4782797;30;20047;-67
2023/10/09 01:09:55;;;;;;;14.27;5.00;;;;;;;17.85;100.00;101399.38;4781415;30;20055;-67
2023/10/09 01:12:23;;;;;;;10.40;5.32;;;;;;;17.82;100.00;101399.19;4780987;30;20063;-67
2023/10/09 01:14:52;;;;;;;12.02;5.43;;;;;;;17.87;100.00;101399.06;4780720;30;20075;-67
2023/10/09 01:17:35;;;;;;;10.52;5.63;;;;;;;17.75;100.00;101401.56;4780936;30;20071;-67
2023/10/09 01:20:14;;;;;;;13.38;5.20;;;;;;;17.76;100.00;101392.94;4783578;30;20596;-67
2023/10/09 01:22:43;;;;;;;10.82;5.38;;;;;;;17.72;100.00;101394.69;4784033;30;20064;-67
2023/10/09 01:25:11;;;;;;;12.90;5.53;;;;;;;17.70;100.00;101389.44;4785799;30;20044;-67
2023/10/09 01:27:40;;;;;;;11.50;5.55;;;;;;;17.72;100.00;101383.63;4785664;30;20385;-67
2023/10/09 01:30:14;;;;;;;10.25;5.35;;;;;;;17.68;100.00;101388.13;4785537;30;20093;-67
2023/10/09 01:32:45;;;;;;;8.52;4.40;;;;;;;17.54;100.00;101388.16;4785368;30;20051;-67
2023/10/09 01:35:21;;;;;;;10.63;5.00;;;;;;;17.49;100.00;101380.75;4784428;30;20051;-67
2023/10/09 01:37:51;;;;;;;8.48;5.82;;;;;;;17.46;100.00;101379.41;4785677;30;20056;-67
2023/10/09 01:40:27;;;;;;;14.00;5.93;;;;;;;17.39;100.00;101378.19;4770197;30;20040;-67
2023/10/09 01:42:56;;;;;;;12.98;6.80;;;;;;;17.42;100.00;101381.19;4786006;30;20054;-67
2023/10/09 01:47:55;;;;;;;9.00;5.35;;;;;;;17.43;100.00;101381.97;4784373;30;20070;-67
2023/10/09 01:50:35;;;;;;;13.18;5.47;;;;;;;17.38;100.00;101379.31;4784142;30;20048;-67
2023/10/09 01:53:05;;;;;;;11.93;5.60;;;;;;;17.35;100.00;101374.41;4784661;30;20048;-67
2023/10/09 01:55:37;;;;;;;12.88;6.18;;;;;;;17.27;100.00;101382.31;4784244;30;20055;-67
2023/10/09 01:58:24;;;;;;;11.70;5.30;;;;;;;17.28;100.00;101375.63;4784233;30;20048;-67
2023/10/09 02:00:55;;;;;;;8.68;5.05;;;;;;;17.26;100.00;101377.06;4784942;30;20055;-67
2023/10/09 02:03:25;;;;;;;11.10;5.45;;;;;;;17.24;100.00;101374.59;4784993;30;20063;-67
2023/10/09 02:06:24;;;;;;;13.77;5.75;;;;;;;17.22;100.00;101371.34;4799295;30;20058;-67
2023/10/09 02:08:49;;;;;;;11.38;5.75;;;;;;;17.20;100.00;101373.56;4786906;30;20059;-67
2023/10/09 02:11:24;;;;;;;11.02;5.47;;;;;;;17.18;100.00;101362.84;4802608;30;20488;-67
2023/10/09 02:14:00;;;;;;;9.95;6.10;;;;;;;17.28;100.00;101369.28;4802372;30;20083;-67
2023/10/09 02:16:29;;;;;;;13.68;6.90;;;;;;;17.29;100.00;101359.84;4786610;30;20408;-67
2023/10/09 02:18:58;;;;;;;13.93;5.68;;;;;;;17.24;100.00;101351.66;4802563;30;20055;-68
2023/10/09 02:21:33;;;;;;;12.35;5.28;;;;;;;17.19;100.00;101358.09;4803260;30;20057;-67
2023/10/09 02:24:26;;;;;;;12.43;5.82;;;;;;;17.13;100.00;101351.84;4787515;30;20039;-67
2023/10/09 02:29:23;;;;;;;12.85;5.72;;;;;;;17.39;100.00;101361.59;4802562;30;20058;-67
2023/10/09 02:31:52;;;;;;;10.65;5.35;;;;;;;17.57;100.00;101360.69;4801708;29;20055;-67
2023/10/09 02:34:25;;;;;;;11.90;5.85;;;;;;;17.60;100.00;101348.19;4801872;30;20065;-67
2023/10/09 02:37:06;;;;;;;13.27;5.68;;;;;;;17.54;100.00;101372.34;4802019;30;20062;-68
2023/10/09 02:39:43;;;;;;;14.75;5.78;;;;;;;17.47;100.00;101366.41;4801482;30;20483;-67
2023/10/09 02:44:51;;;;;;;10.77;5.68;;;;;;;17.12;100.00;101369.59;4802388;30;20059;-67
2023/10/09 02:47:24;;;;;;;10.18;5.65;;;;;;;17.02;100.00;101369.75;4786763;30;20055;-67
2023/10/09 02:49:52;;;;;;;11.75;5.97;;;;;;;17.00;100.00;101358.13;4802003;30;20059;-67
2023/10/09 02:52:24;;;;;;;10.52;5.53;;;;;;;16.92;100.00;101360.50;4801934;30;20042;-67
2023/10/09 02:55:08;;;;;;;12.73;6.63;;;;;;;16.84;100.00;101354.84;4769218;30;20056;-67
2023/10/09 02:57:36;;;;;;;16.55;6.65;;;;;;;16.83;100.00;101353.19;4783719;30;20829;-67
2023/10/09 03:00:09;;;;;;;12.05;6.13;;;;;;;16.82;100.00;101352.41;4773926;30;20041;-67
2023/10/09 03:02:39;;;;;;;14.57;6.35;;;;;;;16.74;100.00;101359.44;4800697;30;20047;-67
2023/10/09 03:05:12;;;;;;;17.23;5.93;;;;;;;16.76;100.00;101359.94;4789735;30;20044;-67
2023/10/09 03:07:40;;;;;;;10.48;6.40;;;;;;;16.93;100.00;101369.63;4767837;30;20056;-67
2023/10/09 03:10:09;;;;;;;20.02;5.97;;;;;;;16.81;100.00;101372.84;4783880;30;20040;-67
2023/10/09 03:12:39;;;;;;;18.85;6.43;;;;;;;16.74;100.00;101375.19;4767446;30;20066;-67
2023/10/09 03:15:08;;;;;;;15.27;6.03;;;;;;;16.71;100.00;101362.78;4783608;30;20054;-67
2023/10/09 03:17:37;;;;;;;13.18;5.97;;;;;;;16.71;100.00;101350.94;4783003;30;20411;-67
2023/10/09 03:20:12;;;;;;;11.00;5.80;;;;;;;16.65;100.00;101362.06;4783108;30;20060;-67
2023/10/09 03:22:42;;;;;;;12.15;6.20;;;;;;;16.59;100.00;101362.44;4783091;30;20048;-67
2023/10/09 03:25:19;;;;;;;16.80;6.28;;;;;;;16.62;100.00;101362.66;4767629;30;20056;-67
2023/10/09 03:27:48;;;;;;;14.98;6.65;;;;;;;16.62;100.00;101364.63;4767519;30;20052;-67
2023/10/09 03:30:26;;;;;;;13.15;5.70;;;;;;;16.63;100.00;101360.75;4782618;30;20047;-67
2023/10/09 03:32:55;;;;;;;10.35;5.82;;;;;;;16.74;100.00;101367.72;4785847;30;20047;-67
2023/10/09 03:35:27;;;;;;;13.32;5.93;;;;;;;16.69;100.00;101369.75;4783221;30;20054;-67
2023/10/09 03:38:11;;;;;;;22.15;6.47;;;;;;;16.63;100.00;101361.53;4782740;30;20060;-67
2023/10/09 03:40:43;;;;;;;12.45;6.47;;;;;;;16.60;100.00;101367.69;4782491;30;20056;-67
2023/10/09 03:43:11;;;;;;;15.27;6.22;;;;;;;16.57;100.00;101367.47;4783607;30;20059;-67
2023/10/09 03:45:52;;;;;;;19.77;6.47;;;;;;;16.56;100.00;101358.34;4782808;30;20056;-67
2023/10/09 03:48:22;;;;;;;13.23;6.30;;;;;;;16.52;100.00;101355.38;4784641;30;20059;-67
2023/10/09 03:51:07;;;;;;;13.18;5.80;;;;;;;16.48;100.00;101359.84;4773974;30;20040;-67
2023/10/09 03:53:36;;;;;;;13.05;5.93;;;;;;;16.43;100.00;101353.59;4784184;30;20044;-67
2023/10/09 03:56:17;;;;;;;12.70;6.10;;;;;;;16.43;100.00;101350.84;4784721;30;20062;-67
2023/10/09 03:58:47;;;;;;;11.52;6.20;;;;;;;16.41;100.00;101355.84;4784714;30;20061;-67
2023/10/09 04:01:29;;;;;;;11.25;5.35;;;;;;;16.43;100.00;101357.16;4783598;30;20069;-67
2023/10/09 04:04:03;;;;;;;12.45;6.30;;;;;;;16.49;100.00;101356.00;4784904;30;20062;-67
2023/10/09 04:06:34;;;;;;;14.07;6.20;;;;;;;16.55;100.00;101358.63;4800914;30;20047;-67
2023/10/09 04:09:35;;;;;;;13.75;5.45;;;;;;;16.60;100.00;101359.41;4800242;30;20316;-67
2023/10/09 04:14:54;;;;;;;10.27;6.10;;;;;;;16.82;100.00;101351.56;4800279;30;20084;-67
2023/10/09 04:25:52;;;;;;;11.38;5.18;;;;;;;16.22;100.00;101340.09;4800010;30;20055;-68
2023/10/09 04:28:19;;;;;;;13.25;6.20;;;;;;;16.15;100.00;101334.13;4798701;30;20051;-67
2023/10/09 04:30:55;;;;;;;13.90;6.00;;;;;;;16.32;100.00;101334.41;4799431;30;20055;-75
2023/10/09 04:33:54;;;;;;;16.83;6.25;;;;;;;16.61;100.00;101330.63;4765776;30;20404;-67
2023/10/09 04:41:52;;;;;;;14.80;5.50;;;;;;;16.72;100.00;101336.00;4797344;30;20055;-67
2023/10/09 04:44:24;;;;;;;15.73;6.47;;;;;;;16.48;100.00;101328.66;4798333;30;20043;-67
2023/10/09 04:52:51;;;;;;;16.05;6.03;;;;;;;15.85;100.00;101329.56;4799658;30;20423;-67
2023/10/09 05:03:04;;;;;;;14.13;6.32;;;;;;;15.73;100.00;101337.44;4799277;30;20055;-68
2023/10/09 05:08:22;;;;;;;13.55;5.80;;;;;;;15.73;100.00;101340.22;4764985;30;20064;-69
2023/10/09 05:16:28;;;;;;;13.73;6.05;;;;;;;15.54;100.00;101332.72;4798020;30;20095;-69
2023/10/09 05:18:56;;;;;;;13.98;6.03;;;;;;;15.52;100.00;101337.72;4781732;30;20067;-70
2023/10/09 05:32:15;;;;;;;11.52;5.63;;;;;;;15.75;100.00;101342.69;4780990;30;20055;-67
2023/10/09 05:37:33;;;;;;;13.20;5.93;;;;;;;15.81;100.00;101338.72;4781092;30;20048;-67
2023/10/09 05:42:57;;;;;;;11.13;4.90;;;;;;;15.95;100.00;101341.63;4787019;30;20052;-69
2023/10/09 06:07:23;;;;;;;14.73;6.85;;;;;;;17.93;96.46;101377.66;4771868;30;20051;-75
2023/10/09 06:09:55;;;;;;;16.63;6.55;;;;;;;18.03;95.99;101376.59;4772089;30;20058;-76
2023/10/09 06:15:19;;;;;;;18.67;5.85;;;;;;;18.04;95.79;101381.00;4802363;30;20055;-75
2023/10/09 06:17:50;;;;;;;14.35;6.50;;;;;;;18.11;95.95;101384.19;4772144;30;20040;-76
2023/10/09 06:23:16;;;;;;;14.85;6.22;;;;;;;18.23;96.36;101397.50;4771474;30;20060;-76
2023/10/09 06:25:51;;;;;;;16.40;7.20;;;;;;;18.37;97.22;101397.44;4786816;30;20040;-75
2023/10/09 06:28:32;;;;;;;16.20;7.43;;;;;;;18.22;96.73;101393.91;4786357;30;20045;-75
2023/10/09 06:31:27;;;;;;;20.58;8.05;;;;;;;18.50;96.39;101390.22;4786042;30;20058;-76
2023/10/09 06:34:16;;;;;;;15.60;7.68;;;;;;;18.51;95.06;101392.69;4771085;30;20072;-76
2023/10/09 06:36:52;;;;;;;18.02;8.40;;;;;;;18.53;94.65;101392.38;4770371;30;20059;-76
2023/10/09 06:42:16;;;;;;;16.40;6.88;;;;;;;18.64;94.01;101395.69;4771058;30;20055;-76
2023/10/09 06:44:53;;;;;;;15.70;7.20;;;;;;;18.58;93.89;101396.97;4785987;30;20051;-76
2023/10/09 06:47:25;;;;;;;14.13;7.45;;;;;;;18.52;92.80;101404.56;4771748;30;20059;-76
2023/10/09 06:52:58;;;;;;;16.98;7.53;;;;;;;18.71;93.15;101411.91;4729007;30;20053;-76
2023/10/09 06:55:36;;;;;;;14.30;7.32;;;;;;;18.68;93.06;101402.25;4773427;30;20059;-76
2023/10/09 06:58:15;;;;;;;19.38;7.93;;;;;;;18.84;92.31;101410.19;4755659;30;20051;-76
2023/10/09 07:03:32;;;;;;;11.77;8.15;;;;;;;18.88;90.90;101411.19;4771345;30;20058;-76
2023/10/09 07:06:24;;;;;;;16.60;9.27;;;;;;;19.05;92.44;101411.31;4770925;30;20060;-76
2023/10/09 07:15:01;;;;;;;;;;;;;;;19.23;92.88;101424.47;4770897;30;20051;-76
2023/10/09 07:20:15;;;;;;;22.08;11.50;;;;;;;19.39;92.75;101420.13;4770403;30;20055;-76
2023/10/09 07:22:53;;;;;;;29.83;14.80;;;;;;;19.34;94.36;101426.66;4770783;30;20123;-76
2023/10/09 07:25:41;;;;;;;27.70;14.25;;;;;;;19.30;94.53;101422.88;4770419;30;20043;-76
2023/10/09 07:28:36;;;;;;;24.23;13.50;;;;;;;19.37;95.09;101411.31;4770602;30;20059;-76
2023/10/09 07:31:09;;;;;;;23.50;14.75;;;;;;;19.46;93.94;101419.69;4770164;30;20078;-76
2023/10/09 07:33:56;;;;;;;26.40;14.73;;;;;;;19.70;94.02;101424.81;4770486;30;20055;-76
2023/10/09 07:36:34;;;;;;;24.90;14.75;;;;;;;19.90;93.47;101425.38;4770855;30;20055;-76
2023/10/09 07:39:14;;;;;;;29.05;14.95;;;;;;;20.00;91.37;101427.84;4755441;30;20074;-76
2023/10/09 07:41:56;;;;;;;28.63;14.88;;;;;;;20.18;90.16;101424.31;4769817;30;20055;-76
2023/10/09 07:45:12;;;;;;;27.40;16.60;;;;;;;20.22;91.96;101414.97;4755834;30;20051;-76
2023/10/09 07:47:45;;;;;;;33.25;15.40;;;;;;;20.28;91.13;101424.78;4791673;30;20055;-76
2023/10/09 07:50:11;;;;;;;30.63;17.08;;;;;;;20.32;91.07;101424.97;4769155;30;20064;-76
2023/10/09 07:52:44;;;;;;;32.83;17.00;;;;;;;20.35;90.60;101421.53;4769951;30;20055;-76
2023/10/09 07:55:26;;;;;;;31.25;17.60;;;;;;;20.39;90.79;101411.38;4769890;30;20066;-76
2023/10/09 07:57:55;;;;;;;32.58;16.80;;;;;;;20.31;92.44;101425.28;4785443;30;20062;-76
2023/10/09 08:00:36;;;;;;;28.35;16.77;;;;;;;20.42;91.26;101421.03;4769844;30;20063;-76
2023/10/09 08:03:23;;;;;;;35.15;17.38;;;;;;;20.46;91.23;101416.47;4784538;30;20058;-77
2023/10/09 08:06:06;;;;;;;28.83;15.20;;;;;;;20.61;88.60;101420.72;4784215;30;20042;-76
2023/10/09 08:14:00;;;;;;;35.42;16.33;;;;;;;20.81;88.63;101415.59;4784254;30;20070;-76
2023/10/09 08:16:39;;;;;;;26.42;15.48;;;;;;;20.84;88.78;101420.50;4769973;30;20047;-77
2023/10/09 08:19:32;;;;;;;29.33;14.93;;;;;;;21.07;87.91;101428.69;4769957;30;20055;-76
2023/10/09 08:24:52;;;;;;;28.77;15.27;;;;;;;21.21;86.27;101411.75;4784811;30;20058;-76
2023/10/09 08:32:42;;;;;;;27.10;16.20;;;;;;;21.29;85.65;101410.09;4784819;30;20055;-76
2023/10/09 08:35:48;;;;;;;31.08;15.90;;;;;;;21.37;85.89;101409.25;4768819;30;20056;-77
2023/10/09 08:38:10;;;;;;;32.17;18.05;;;;;;;21.58;85.15;101416.84;4767483;30;20047;-76
2023/10/09 08:40:41;;;;;;;35.00;17.13;;;;;;;21.63;84.25;101402.75;4755739;30;20035;-78
2023/10/09 08:43:21;;;;;;;31.13;19.05;;;;;;;21.81;83.67;101414.66;4769447;30;20051;-77
2023/10/09 08:45:53;;;;;;;30.73;16.65;;;;;;;21.92;83.56;101403.91;4769705;30;20055;-77
2023/10/09 08:48:26;;;;;;;27.05;17.23;;;;;;;21.98;82.48;101405.34;4769189;30;20055;-77
2023/10/09 08:50:56;;;;;;;26.27;16.87;;;;;;;21.95;83.12;101403.22;4769135;30;20067;-77
2023/10/09 08:53:27;;;;;;;35.40;18.70;;;;;;;21.99;82.44;101415.34;4783002;30;20055;-77
2023/10/09 08:55:56;;;;;;;33.60;18.17;;;;;;;22.06;82.87;101409.22;4768826;30;20074;-77
2023/10/09 08:58:36;;;;;;;33.38;17.13;;;;;;;22.21;82.42;101410.59;4768456;30;20054;-76
2023/10/09 09:01:05;;;;;;;34.17;19.08;;;;;;;22.25;81.60;101403.16;4769009;30;20063;-77
2023/10/09 09:03:43;;;;;;;33.08;18.15;;;;;;;22.20;81.25;101408.97;4769204;30;20051;-77
2023/10/09 09:06:14;;;;;;;30.75;18.33;;;;;;;22.39;80.72;101396.53;4751177;30;20051;-76
2023/10/09 09:08:44;;;;;;;31.77;17.30;;;;;;;22.31;80.21;101395.44;4751270;30;20063;-77
2023/10/09 09:11:22;;;;;;;32.00;17.52;;;;;;;22.45;79.93;101406.31;4751259;30;20060;-76
2023/10/09 09:14:04;;;;;;;31.67;16.70;;;;;;;22.67;79.16;101407.09;4751506;30;20063;-77
2023/10/09 09:16:36;;;;;;;29.83;17.08;;;;;;;22.66;79.29;101397.94;4751278;30;20064;-77
2023/10/09 09:21:44;;;;;;;28.88;16.77;;;;;;;22.87;78.27;101399.84;4765842;30;20062;-77
2023/10/09 09:24:26;;;;;;;31.27;17.30;;;;;;;22.84;78.16;101391.34;4736823;30;20054;-77
2023/10/09 09:27:18;;;;;;;36.22;19.90;;;;;;;22.74;78.47;101393.44;4736740;30;20059;-77
2023/10/09 09:29:53;;;;;;;32.00;18.48;;;;;;;23.03;78.55;101393.59;4750992;30;20059;-77
2023/10/09 09:32:35;;;;;;;29.23;17.48;;;;;;;23.14;77.38;101392.00;4736817;30;20063;-76
2023/10/09 09:35:17;;;;;;;31.33;18.00;;;;;;;23.16;75.47;101388.88;4736626;30;20118;-77
2023/10/09 09:37:53;;;;;;;30.67;17.55;;;;;;;23.33;75.59;101382.28;4736668;30;20059;-77
2023/10/09 09:40:33;;;;;;;30.02;15.75;;;;;;;23.47;72.78;101382.72;4751614;30;20048;-77
2023/10/09 09:43:09;;;;;;;29.13;16.60;;;;;;;23.55;72.86;101382.97;4754454;30;20056;-77
2023/10/09 09:45:46;;;;;;;29.55;16.40;;;;;;;23.49;74.13;101372.03;4754628;30;20056;-77
2023/10/09 09:48:16;;;;;;;29.33;16.98;;;;;;;23.45;73.43;101378.66;4754843;30;20072;-77
2023/10/09 09:50:47;;;;;;;32.35;18.48;;;;;;;23.52;73.25;101373.31;4754543;30;20060;-77
2023/10/09 09:53:16;;;;;;;28.80;16.60;;;;;;;23.62;73.15;101372.03;4740203;30;20067;-77
2023/10/09 09:55:55;;;;;;;25.80;16.17;;;;;;;23.78;72.39;101372.13;4753894;30;20051;-77
2023/10/09 09:58:32;;;;;;;26.33;15.93;;;;;;;23.81;72.86;101373.41;4754244;30;20055;-77
2023/10/09 10:01:24;;;;;;;29.17;18.90;;;;;;;23.95;73.35;101373.03;4753733;30;20052;-77
2023/10/09 10:04:14;;;;;;;28.40;15.95;;;;;;;24.15;70.85;101372.03;4754994;30;20052;-78
2023/10/09 10:06:47;;;;;;;28.55;15.20;;;;;;;24.24;70.38;101369.09;4757540;30;20072;-77
2023/10/09 10:09:39;;;;;;;33.63;16.83;;;;;;;24.36;69.81;101359.88;4786523;30;20062;-77
2023/10/09 10:12:09;;;;;;;28.50;15.45;;;;;;;24.42;68.62;101360.41;4771724;30;20055;-77
2023/10/09 10:15:38;;;;;;;30.65;15.63;;;;;;;24.40;67.00;101360.75;4770808;30;20069;-77
2023/10/09 10:18:00;;;;;;;25.75;14.40;;;;;;;24.27;67.83;101359.19;4781013;30;20043;-77
2023/10/09 10:20:31;;;;;;;26.08;15.00;;;;;;;24.37;67.65;101352.28;4784875;30;20071;-77
2023/10/09 10:23:17;;;;;;;26.65;14.68;;;;;;;24.40;67.02;101351.56;4771760;30;20055;-78
2023/10/09 10:25:49;;;;;;;30.83;15.55;;;;;;;24.53;66.22;101355.09;4777097;30;20054;-78
2023/10/09 10:28:42;;;;;;;28.85;15.18;;;;;;;24.57;64.80;101347.63;4774956;29;20062;-77
2023/10/09 10:31:15;;;;;;;22.73;13.48;;;;;;;24.80;65.38;101335.84;4774370;29;20058;-77
2023/10/09 10:33:55;;;;;;;25.35;13.07;;;;;;;24.85;64.97;101335.59;4768977;30;20060;-77
2023/10/09 10:36:29;;;;;;;24.65;12.63;;;;;;;24.89;64.76;101330.09;4782794;30;20055;-77
2023/10/09 10:41:56;;;;;;;21.48;12.65;;;;;;;25.17;61.23;101324.38;4777216;30;20055;-79
2023/10/09 10:44:34;;;;;;;20.40;12.07;;;;;;;25.22;62.57;101326.91;4771498;30;20055;-77
2023/10/09 10:47:22;;;;;;;22.67;12.30;;;;;;;25.29;62.45;101319.84;4771793;30;20057;-77
2023/10/09 10:49:58;;;;;;;25.00;12.10;;;;;;;25.38;62.11;101314.88;4770534;30;20055;-77
2023/10/09 10:52:43;;;;;;;22.98;12.15;;;;;;;25.45;61.59;101301.03;4770782;30;20074;-77
2023/10/09 10:55:48;;;;;;;;;;;;;;;25.57;59.47;101299.31;4757124;30;20059;-77
2023/10/09 10:58:23;;;;;;;22.90;11.25;;;;;;;25.76;59.75;101282.53;4770951;30;19929;-77
2023/10/09 11:03:35;;;;;;;24.75;12.00;;;;;;;25.93;57.18;101274.03;4770911;30;20058;-78
2023/10/09 11:06:13;;;;;;;23.10;10.90;;;;;;;26.01;56.54;101275.81;4756419;30;20055;-78
2023/10/09 11:08:56;;;;;;;18.25;9.80;;;;;;;26.13;57.15;101272.03;4770559;30;20058;-78
2023/10/09 11:11:32;;;;;;;21.27;10.15;;;;;;;26.20;56.38;101266.53;4770256;30;20070;-78
2023/10/09 11:14:23;;;;;;;23.52;10.23;;;;;;;26.36;56.33;101255.28;4770678;30;20055;-78
2023/10/09 11:16:57;;;;;;;23.00;9.55;;;;;;;26.49;56.01;101255.09;4770473;30;20058;-78
2023/10/09 11:24:36;;;;;;;13.80;6.32;;;;;;;26.97;52.58;101235.03;4770680;30;20063;-78
2023/10/09 11:27:06;;;;;;;14.60;5.82;;;;;;;27.13;52.51;101228.44;4770375;30;20055;-78
2023/10/09 11:32:18;;;;;;;14.38;5.65;;;;;;;27.17;51.55;101237.75;4770036;30;20066;-78
2023/10/09 11:34:51;;;;;;;14.68;5.47;;;;;;;27.41;51.29;101230.03;4770914;30;20054;-79
2023/10/09 11:40:00;;;;;;;10.15;5.10;;;;;;;27.32;51.70;101222.69;4770276;30;20051;-78
2023/10/09 11:42:38;;;;;;;10.27;4.00;;;;;;;27.50;48.26;101219.31;4770291;30;20183;-78
2023/10/09 11:45:20;;;;;;;12.88;3.50;;;;;;;27.63;46.30;101208.66;4770397;30;20054;-78
2023/10/09 11:47:57;;;;;;;11.88;3.67;;;;;;;27.61;46.03;101211.06;4770993;30;20063;-77
2023/10/09 11:50:43;;;;;;;7.28;2.70;;;;;;;27.62;43.48;101205.03;4755724;30;20059;-77
2023/10/09 11:55:53;;;;;;;8.90;2.60;;;;;;;28.09;42.58;101204.75;4769977;30;20055;-78
2023/10/09 11:58:22;;;;;;;12.27;2.97;;;;;;;27.89;42.21;101193.69;4770499;30;20061;-78
2023/10/09 12:01:05;;;;;;;5.72;2.47;;;;;;;27.88;41.51;101191.25;4769778;30;20059;-78
2023/10/09 12:03:35;;;;;;;9.98;2.58;;;;;;;28.06;40.05;101185.84;4769106;30;20051;-78
2023/10/09 12:06:05;;;;;;;6.78;1.83;;;;;;;28.25;39.49;101184.81;4798811;30;20097;-77
2023/10/09 12:08:37;;;;;;;8.90;2.50;;;;;;;28.28;40.05;101183.22;4770373;30;20058;-78
2023/10/09 12:11:11;;;;;;;6.70;2.40;;;;;;;28.48;39.86;101174.56;4783661;30;20077;-77
2023/10/09 12:13:43;;;;;;;5.93;2.08;;;;;;;28.59;38.71;101169.81;4769760;30;20051;-77
2023/10/09 12:16:15;;;;;;;8.13;2.85;;;;;;;28.67;39.48;101162.22;4768232;30;20043;-77
2023/10/09 12:18:52;;;;;;;9.52;2.40;;;;;;;28.57;39.41;101158.13;4769022;30;20059;-77
2023/10/09 12:21:27;;;;;;;7.95;2.40;;;;;;;28.76;39.37;101153.44;4769220;30;20065;-77
2023/10/09 12:23:57;;;;;;;11.02;2.47;;;;;;;28.81;38.48;101155.88;4766286;30;20071;-78
2023/10/09 12:26:34;;;;;;;9.98;2.35;;;;;;;28.77;38.21;101155.88;4765396;30;20058;-78
2023/10/09 12:29:10;;;;;;;9.13;2.60;;;;;;;28.80;39.02;101141.00;4782255;30;20056;-77
2023/10/09 12:31:40;;;;;;;10.68;2.38;;;;;;;29.04;37.98;101140.75;4754095;30;20055;-77
2023/10/09 12:34:09;;;;;;;11.05;2.08;;;;;;;29.03;37.19;101123.03;4769545;30;20061;-78
2023/10/09 12:36:46;;;;;;;13.90;2.47;;;;;;;29.00;37.19;101132.28;4769938;30;20052;-77
2023/10/09 12:39:18;;;;;;;10.80;2.95;;;;;;;28.92;37.93;101134.25;4754206;30;20055;-77
2023/10/09 12:41:48;;;;;;;6.78;2.00;;;;;;;28.95;38.52;101116.59;4768771;30;20059;-78
2023/10/09 12:44:18;;;;;;;16.05;3.05;;;;;;;29.03;37.46;101127.88;4768451;30;20061;-77
2023/10/09 12:46:54;;;;;;;8.15;2.30;;;;;;;29.10;37.19;101123.09;4768662;30;20055;-77
2023/10/09 12:49:26;;;;;;;12.18;2.60;;;;;;;29.12;37.90;101125.50;4765901;30;20051;-78
2023/10/09 12:51:57;;;;;;;11.20;2.92;;;;;;;29.14;37.10;101114.66;4780237;30;20153;-78
2023/10/09 12:54:35;;;;;;;17.15;2.45;;;;;;;29.22;38.44;101113.47;4765633;30;20056;-77
2023/10/09 12:57:03;;;;;;;12.35;2.92;;;;;;;29.16;37.63;101111.41;4750955;30;20060;-77
2023/10/09 12:59:32;;;;;;;9.68;3.42;;;;;;;29.38;37.24;101104.66;4752033;30;20056;-77
2023/10/09 13:02:05;;;;;;;12.00;3.08;;;;;;;29.45;37.51;101094.59;4737292;30;20058;-77
2023/10/09 13:04:40;;;;;;;11.75;3.33;;;;;;;29.52;36.75;101105.94;4759698;30;20042;-77
2023/10/09 13:07:10;;;;;;;9.65;2.65;;;;;;;29.56;38.17;101098.28;4772218;29;20055;-77
2023/10/09 13:10:07;;;;;;;8.05;3.95;;;;;;;29.59;37.95;101088.22;4786216;29;20057;-77
2023/10/09 13:12:38;;;;;;;9.48;3.20;;;;;;;29.58;37.94;101083.78;4783445;30;20062;-77
2023/10/09 13:15:11;;;;;;;13.48;2.75;;;;;;;29.50;38.48;101072.50;4785344;30;20066;-77
2023/10/09 13:17:41;;;;;;;9.83;3.07;;;;;;;29.36;38.29;101078.06;4768167;30;20055;-77
2023/10/09 13:20:13;;;;;;;16.58;4.28;;;;;;;29.28;38.03;101068.00;4779800;30;20304;-77
2023/10/09 13:22:46;;;;;;;5.60;2.22;;;;;;;29.39;38.82;101074.47;4771698;30;20051;-76
2023/10/09 13:25:25;;;;;;;9.45;2.70;;;;;;;29.33;38.93;101081.69;4781937;30;20047;-77
2023/10/09 13:28:05;;;;;;;12.85;3.38;;;;;;;29.30;39.20;101074.84;4771996;30;20055;-79
2023/10/09 13:30:39;;;;;;;10.07;3.35;;;;;;;29.38;39.32;101070.03;4760982;30;20055;-78
2023/10/09 13:33:16;;;;;;;10.68;2.88;;;;;;;29.24;39.70;101059.53;4772268;30;20055;-78
2023/10/09 13:35:50;;;;;;;8.73;2.55;;;;;;;29.10;39.33;101071.56;4768644;30;20048;-78
2023/10/09 13:38:19;;;;;;;15.85;3.22;;;;;;;28.99;40.03;101053.81;4768888;30;20068;-78
2023/10/09 13:41:01;;;;;;;8.87;2.87;;;;;;;29.07;41.25;101052.63;4786738;30;20086;-78
2023/10/09 13:43:30;;;;;;;10.18;3.10;;;;;;;29.01;40.65;101045.75;4782371;29;20384;-78
2023/10/09 13:46:03;;;;;;;9.10;2.67;;;;;;;29.08;40.57;101063.50;4775256;29;20050;-78
2023/10/09 13:48:37;;;;;;;13.98;3.55;;;;;;;29.02;40.96;101044.56;4790022;29;20042;-78
2023/10/09 13:51:13;;;;;;;12.18;3.00;;;;;;;29.06;40.22;101043.38;4795293;30;20051;-78
2023/10/09 13:53:47;;;;;;;11.07;3.03;;;;;;;28.97;40.84;101034.47;4786130;30;20062;-78
2023/10/09 13:56:20;;;;;;;10.73;2.80;;;;;;;28.97;39.97;101028.84;4773255;30;20051;-79
2023/10/09 13:58:53;;;;;;;11.15;3.60;;;;;;;29.15;40.32;101033.72;4764363;29;20062;-78
2023/10/09 14:01:27;;;;;;;15.13;3.63;;;;;;;29.23;40.05;101027.72;4764683;30;20048;-78
2023/10/09 14:03:58;;;;;;;13.27;3.30;;;;;;;29.19;39.85;101021.28;4785772;30;20043;-79
2023/10/09 14:06:31;;;;;;;11.52;3.33;;;;;;;29.30;41.41;101026.13;4771353;30;20066;-78
2023/10/09 14:09:05;;;;;;;11.38;3.45;;;;;;;29.24;40.51;101020.06;4771029;30;20059;-78
2023/10/09 14:11:44;;;;;;;8.20;2.80;;;;;;;29.14;41.00;101010.41;4770491;29;20061;-78
2023/10/09 14:14:16;;;;;;;11.05;3.28;;;;;;;29.07;41.15;101005.53;4768454;30;20056;-78